Latest Weather Observations for Renmark Airport

IDS60801

Issued at 6:31 pm CDT Monday 23 October 2017 (issued every 30 minutes, with the page automatically refreshed every 10 minutes)

About weather observations | Map of weather stations | Latest weather observations for SA | Other Formats
Station Details ID: 024048 Name: RENMARK AERO Lat: -34.20 Lon: 140.68 Height: 31.5 m
Data from the previous 72 hours. | See also: Recent months at Renmark Airport
Date/Time
CDT
Temp
°C
App
Temp
°C
Dew
Point
°C
Rel
Hum
%
Delta-T
°C
Wind Press
QNH
hPa
Press
MSL
hPa
Rain since
9am
mm
Dir  Spd
km/h
Gust
km/h
Spd
kts
Gust
kts
23/06:00pm 24.6 21.4 6.8 32 9.3 ENE 13 15 7 8 1015.0 1015.0 0.0
23/05:30pm 25.1 22.7 6.8 31 9.5 ESE 9 15 5 8 1015.2 1015.2 0.0
23/05:00pm 25.5 22.6 6.7 30 9.8 SSE 11 19 6 10 1015.2 1015.2 0.0
23/04:30pm 25.5 22.6 6.7 30 9.8 WSW 11 17 6 9 1015.3 1015.3 0.0
23/04:00pm 25.9 23.6 5.5 27 10.5 W 7 17 4 9 1015.5 1015.4 0.0
23/03:30pm 24.8 22.1 5.6 29 9.8 SSW 9 19 5 10 1015.7 1015.6 0.0
23/03:00pm 25.3 22.6 5.5 28 10.1 W 9 13 5 7 1016.0 1015.9 0.0
23/02:30pm 24.5 21.9 6.3 31 9.4 NW 9 17 5 9 1016.3 1016.2 0.0
23/02:00pm 23.3 21.4 7.4 36 8.3 S 7 20 4 11 1016.8 1016.7 0.0
23/01:30pm 22.5 19.7 7.1 37 7.9 NNE 11 19 6 10 1017.3 1017.2 0.0
23/01:00pm 22.5 20.3 7.9 39 7.7 N 9 17 5 9 1017.8 1017.7 0.0
23/12:30pm 22.4 20.4 8.5 41 7.3 WNW 9 17 5 9 1018.2 1018.1 0.0
23/12:00pm 20.8 18.3 8.4 45 6.5 NW 11 19 6 10 1018.8 1018.7 0.0
23/11:30am 19.3 17.7 8.6 50 5.6 N 7 13 4 7 1019.6 1019.5 0.0
23/11:00am 18.1 16.5 8.9 55 4.8 ENE 7 15 4 8 1019.8 1019.7 0.0
23/10:30am 16.9 15.1 9.6 62 3.8 E 9 15 5 8 1020.3 1020.2 0.0
23/10:00am 15.4 13.9 9.3 67 3.1 ESE 7 13 4 7 1020.4 1020.3 0.0
23/09:30am 14.2 12.3 9.2 72 2.5 ESE 9 13 5 7 1020.6 1020.5 0.0
23/09:00am 13.5 11.7 9.6 77 2.0 SE 9 15 5 8 1020.7 1020.6 0.0
23/08:30am 12.3 10.6 9.7 84 1.3 SSE 9 15 5 8 1020.7 1020.6 0.0
23/08:00am 11.4 9.4 10.1 92 0.7 SSW 11 15 6 8 1020.5 1020.4 0.0
23/07:43am 11.0 9.8 10.2 95 0.4 S 7 11 4 6 1020.3 1020.2 0.0
23/07:30am 10.6 8.9 10.0 96 0.3 SSW 9 13 5 7 1020.1 1020.0 0.0
23/07:00am 9.4 8.2 9.4 100 0.0 SSW 6 9 3 5 1020.0 1019.9 0.0
23/06:30am 8.5 7.0 8.5 100 0.0 SE 6 9 3 5 1019.4 1019.3 0.0
23/06:00am 8.7 7.1 8.7 100 0.0 SSW 7 9 4 5 1019.4 1019.3 0.0
23/05:30am 9.3 7.8 9.3 100 0.0 SSW 7 9 4 5 1019.3 1019.2 0.0
23/05:00am 9.9 8.2 9.9 100 0.0 SSE 9 15 5 8 1019.2 1019.1 0.0
23/04:30am 10.5 7.3 9.9 96 0.3 SSE 17 22 9 12 1019.4 1019.3 0.0
23/04:00am 10.6 8.0 9.5 93 0.6 S 13 20 7 11 1019.5 1019.4 0.0
23/03:30am 10.7 8.0 9.1 90 0.8 S 13 19 7 10 1019.8 1019.7 0.0
23/03:00am 11.0 8.3 8.8 86 1.1 SSW 13 20 7 11 1020.0 1019.9 0.0
23/02:30am 11.3 8.1 8.5 83 1.4 SSW 15 20 8 11 1020.1 1020.0 0.0
23/02:00am 11.6 8.0 8.3 80 1.6 SSW 17 24 9 13 1020.2 1020.1 0.0
23/01:30am 11.9 8.3 8.2 78 1.8 SW 17 22 9 12 1020.3 1020.2 0.0
23/01:00am 12.2 8.9 7.9 75 2.1 SSW 15 19 8 10 1020.4 1020.3 0.0
23/12:30am 12.6 8.9 7.9 73 2.3 SSW 17 22 9 12 1020.5 1020.4 0.0
23/12:00am 13.1 9.4 7.8 70 2.6 SSW 17 24 9 13 1020.6 1020.5 0.0
 
Date/Time
CDT
Temp
°C
App
Temp
°C
Dew
Point
°C
Rel
Hum
%
Delta-T
°C
Wind Press
QNH
hPa
Press
MSL
hPa
Rain since
9am
mm
Dir  Spd
km/h
Gust
km/h
Spd
kts
Gust
kts
22/11:30pm 13.7 9.4 7.9 68 2.9 SSW 20 28 11 15 1020.5 1020.4 0.0
22/11:00pm 14.2 9.9 7.7 65 3.2 SSW 20 28 11 15 1020.4 1020.3 0.0
22/10:30pm 14.9 10.6 7.7 62 3.6 SSW 20 30 11 16 1020.4 1020.3 0.0
22/10:00pm 15.7 11.3 7.5 58 4.1 SSW 20 32 11 17 1020.2 1020.1 0.0
22/09:30pm 16.9 12.7 7.3 53 4.8 SSW 19 28 10 15 1019.9 1019.8 0.0
22/09:00pm 17.9 14.4 7.3 50 5.3 S 15 19 8 10 1019.7 1019.6 0.0
22/08:30pm 18.7 14.8 7.2 47 5.8 S 17 24 9 13 1019.5 1019.4 0.0
22/08:00pm 19.0 14.6 7.4 47 5.9 S 20 30 11 16 1019.3 1019.2 0.0
22/07:30pm 19.5 14.6 6.9 44 6.3 S 22 33 12 18 1019.1 1019.0 0.0
22/07:00pm 20.0 15.1 6.7 42 6.7 SSW 22 32 12 17 1018.8 1018.7 0.0
22/06:30pm 20.5 15.5 6.5 40 7.0 S 22 30 12 16 1018.6 1018.5 0.0
22/06:00pm 20.7 16.0 5.9 38 7.4 SSW 20 35 11 19 1018.3 1018.2 0.0
22/05:30pm 21.3 15.4 6.0 37 7.7 SSW 26 37 14 20 1018.0 1017.9 0.0
22/05:00pm 21.8 15.8 5.3 34 8.2 S 26 37 14 20 1017.9 1017.8 0.0
22/04:30pm 21.8 16.1 4.8 33 8.4 SSW 24 35 13 19 1017.8 1017.7 0.0
22/04:00pm 22.8 17.9 5.3 32 8.8 S 20 35 11 19 1017.9 1017.8 0.0
22/03:30pm 21.6 16.3 5.1 34 8.1 S 22 33 12 18 1018.3 1018.2 0.0
22/03:00pm 21.3 16.6 5.2 35 7.9 SSW 19 33 10 18 1018.7 1018.6 0.0
22/02:30pm 21.3 16.7 5.6 36 7.8 S 19 33 10 18 1019.0 1018.9 0.0
22/02:00pm 20.6 15.2 6.2 39 7.2 S 24 35 13 19 1019.6 1019.5 0.0
22/01:30pm 20.1 15.3 5.4 38 7.2 S 20 32 11 17 1019.9 1019.8 0.0
22/01:00pm 19.4 14.0 4.4 37 7.2 S 22 39 12 21 1020.3 1020.2 0.0
22/12:30pm 18.7 14.3 4.8 40 6.7 S 17 39 9 21 1020.8 1020.7 0.0
22/12:00pm 18.3 14.1 5.5 43 6.2 S 17 28 9 15 1021.3 1021.2 0.0
22/11:30am 16.7 11.8 5.3 47 5.4 SSW 20 28 11 15 1021.8 1021.7 0.0
22/11:00am 15.2 10.9 5.4 52 4.7 SW 17 28 9 15 1022.3 1022.2 0.0
22/10:30am 14.1 9.6 6.9 62 3.5 SSW 20 32 11 17 1022.5 1022.4 0.0
22/10:00am 13.3 8.9 7.3 67 2.9 S 20 30 11 16 1022.7 1022.6 0.0
22/09:46am 12.2 8.8 9.2 82 1.5 SSW 17 24 9 13 1022.8 1022.7 0.0
22/09:35am 12.0 8.5 10.1 88 1.0 SSW 19 26 10 14 1022.8 1022.7 0.0
22/09:30am 12.6 8.9 9.4 81 1.6 S 19 26 10 14 1022.8 1022.7 0.0
22/09:00am 12.8 8.7 7.9 72 2.4 SSW 19 28 10 15 1022.8 1022.7 0.0
22/08:49am 12.5 8.5 8.4 76 2.0 SSW 19 26 10 14 1022.8 1022.7 0.0
22/08:30am 12.4 8.9 8.7 78 1.8 SSW 17 24 9 13 1022.8 1022.7 0.0
22/08:13am 11.8 8.6 8.6 81 1.6 SW 15 22 8 12 1022.8 1022.7 0.0
22/08:00am 11.7 8.9 8.4 80 1.6 SW 13 19 7 10 1022.8 1022.7 0.0
22/07:30am 11.5 8.6 8.2 80 1.6 SW 13 17 7 9 1022.4 1022.3 0.0
22/07:00am 11.2 9.0 7.9 80 1.6 WSW 9 15 5 8 1022.0 1021.9 0.0
22/06:30am 11.0 8.4 7.7 80 1.6 SSW 11 15 6 8 1021.9 1021.8 0.0
22/06:00am 10.8 7.8 7.7 81 1.5 S 13 19 7 10 1021.9 1021.8 0.0
22/05:30am 10.8 6.7 7.9 82 1.4 S 19 26 10 14 1021.9 1021.8 0.0
22/05:00am 10.4 6.5 8.8 90 0.8 S 19 24 10 13 1021.8 1021.7 0.0
22/04:30am 11.4 7.1 7.1 75 2.0 S 19 26 10 14 1021.6 1021.5 0.0
22/04:00am 11.8 7.2 6.7 71 2.4 S 20 28 11 15 1021.6 1021.5 0.0
22/03:30am 11.9 8.4 7.0 72 2.3 SSW 15 22 8 12 1021.8 1021.7 0.0
22/03:00am 11.7 7.9 7.4 75 2.1 SSW 17 26 9 14 1022.0 1021.9 0.0
22/02:30am 11.2 8.2 7.7 79 1.7 SSW 13 20 7 11 1022.2 1022.1 0.0
22/02:00am 11.0 7.5 7.3 78 1.8 SSW 15 20 8 11 1022.6 1022.5 0.0
22/01:30am 11.8 7.6 7.3 74 2.2 SSW 19 28 10 15 1022.9 1022.8 0.0
22/01:00am 12.2 7.7 6.9 70 2.5 SSW 20 32 11 17 1023.3 1023.2 0.0
22/12:30am 13.0 7.8 5.7 61 3.4 SSW 22 35 12 19 1023.5 1023.4 0.0
22/12:00am 13.2 8.3 5.1 58 3.7 SSW 20 30 11 16 1023.5 1023.4 0.0
 
Date/Time
CDT
Temp
°C
App
Temp
°C
Dew
Point
°C
Rel
Hum
%
Delta-T
°C
Wind Press
QNH
hPa
Press
MSL
hPa
Rain since
9am
mm
Dir  Spd
km/h
Gust
km/h
Spd
kts
Gust
kts
21/11:30pm 12.8 8.8 4.8 58 3.7 S 15 22 8 12 1023.8 1023.7 0.0
21/11:00pm 12.3 8.7 4.8 60 3.4 SSW 13 19 7 10 1023.9 1023.8 0.0
21/10:30pm 12.5 8.8 4.7 59 3.6 SSW 13 19 7 10 1024.2 1024.1 0.0
21/10:00pm 12.8 8.5 5.2 60 3.5 SSW 17 24 9 13 1024.3 1024.2 0.0
21/09:30pm 13.3 8.4 5.2 58 3.8 SSW 20 28 11 15 1024.3 1024.2 0.0
21/09:00pm 14.0 8.3 5.1 55 4.1 SSW 24 32 13 17 1024.1 1024.0 0.0
21/08:30pm 14.7 7.9 5.0 52 4.5 SSW 30 43 16 23 1023.9 1023.8 0.0
21/08:00pm 15.8 10.1 4.8 48 5.2 SSW 24 35 13 19 1023.5 1023.4 0.0
21/07:30pm 17.3 11.9 4.3 42 6.1 SSW 22 35 12 19 1023.2 1023.1 0.0
21/07:00pm 18.5 12.2 3.9 38 6.9 SSW 26 39 14 21 1022.9 1022.8 0.0
21/06:30pm 19.8 13.1 3.9 35 7.6 SSW 28 37 15 20 1022.7 1022.6 0.0
21/06:00pm 20.4 14.0 3.2 32 8.1 SSW 26 37 14 20 1022.5 1022.4 0.0
21/05:30pm 20.8 14.3 2.6 30 8.5 SSW 26 39 14 21 1022.5 1022.4 0.0
21/05:00pm 21.2 14.3 2.5 29 8.8 S 28 39 15 21 1022.5 1022.4 0.0
21/04:30pm 21.6 15.0 1.8 27 9.2 SSW 26 43 14 23 1022.6 1022.5 0.0
21/04:00pm 21.6 15.0 1.8 27 9.2 SSW 26 39 14 21 1022.9 1022.8 0.0
21/03:30pm 21.7 15.8 1.9 27 9.2 SW 22 35 12 19 1023.3 1023.2 0.0
21/03:00pm 21.0 15.2 2.3 29 8.7 SW 22 33 12 18 1023.9 1023.8 0.0
21/02:30pm 20.9 14.8 2.7 30 8.5 SSW 24 37 13 20 1024.5 1024.4 0.0
21/02:00pm 19.8 14.1 2.6 32 8.0 SSW 22 35 12 19 1024.8 1024.7 0.0
21/01:30pm 19.0 12.8 2.4 33 7.6 SSW 24 32 13 17 1025.3 1025.2 0.0
21/01:00pm 18.6 13.3 2.9 35 7.3 SSW 20 41 11 22 1025.7 1025.6 0.0
21/12:30pm 17.8 12.2 3.3 38 6.7 SSW 22 33 12 18 1026.3 1026.2 0.0
21/12:00pm 16.6 10.6 3.3 41 6.1 SSW 24 33 13 18 1026.9 1026.8 0.0
21/11:30am 16.5 11.3 3.6 42 5.9 S 20 30 11 16 1027.5 1027.4 0.0
21/11:00am 15.0 9.4 3.2 45 5.3 S 22 35 12 19 1028.1 1028.0 0.0
21/10:30am 14.0 7.7 3.8 50 4.6 S 26 35 14 19 1028.4 1028.3 0.0
21/10:00am 14.5 8.5 3.6 48 5.0 S 24 33 13 18 1028.6 1028.6 0.0
21/09:30am 13.1 7.5 3.5 52 4.3 S 22 32 12 17 1028.6 1028.6 0.0
21/09:00am 12.2 6.7 3.9 57 3.7 S 22 30 12 16 1029.0 1029.0 0.2
21/08:30am 11.4 6.2 3.7 59 3.4 S 20 28 11 15 1029.1 1029.1 0.2
21/08:00am 10.1 5.6 4.0 66 2.7 SSW 17 26 9 14 1029.1 1029.1 0.2
21/07:30am 8.6 4.4 3.8 72 2.1 SSW 15 26 8 14 1029.0 1029.0 0.2
21/07:00am 7.5 3.7 3.9 78 1.5 SSW 13 17 7 9 1028.6 1028.6 0.2
21/06:30am 7.0 3.2 3.8 80 1.4 SSW 13 19 7 10 1028.5 1028.5 0.2
21/06:00am 6.9 3.4 3.7 80 1.4 SSW 11 17 6 9 1028.4 1028.3 0.2
21/05:30am 7.1 4.0 3.5 78 1.5 SSW 9 13 5 7 1028.3 1028.2 0.2
21/05:00am 7.7 3.9 3.7 76 1.7 S 13 22 7 12 1028.2 1028.1 0.2
21/04:30am 8.0 3.4 3.8 75 1.8 S 17 24 9 13 1028.3 1028.2 0.2
21/04:00am 8.3 3.7 3.9 74 1.9 S 17 24 9 13 1028.2 1028.1 0.2
21/03:30am 8.8 3.9 4.0 72 2.1 S 19 24 10 13 1028.2 1028.1 0.2
21/03:00am 9.1 4.2 4.1 71 2.2 S 19 26 10 14 1028.5 1028.5 0.2
21/02:30am 9.5 5.0 4.1 69 2.4 S 17 24 9 13 1028.6 1028.6 0.2
21/02:00am 9.9 5.0 4.1 67 2.6 SSW 19 28 10 15 1028.7 1028.7 0.2
21/01:30am 10.3 5.4 4.0 65 2.8 SSW 19 26 10 14 1028.8 1028.8 0.2
21/01:00am 10.8 5.7 4.0 63 3.0 SSW 20 32 11 17 1028.8 1028.8 0.2
21/12:30am 11.3 6.2 4.1 61 3.2 SSW 20 30 11 16 1028.7 1028.7 0.2
21/12:00am 11.8 6.7 4.1 59 3.4 SSW 20 28 11 15 1028.8 1028.8 0.2
 
Date/Time
CDT
Temp
°C
App
Temp
°C
Dew
Point
°C
Rel
Hum
%
Delta-T
°C
Wind Press
QNH
hPa
Press
MSL
hPa
Rain since
9am
mm
Dir  Spd
km/h
Gust
km/h
Spd
kts
Gust
kts
20/11:30pm 12.5 6.3 4.2 57 3.7 SSW 26 35 14 19 1028.9 1028.9 0.2
20/11:00pm 13.0 7.2 4.2 55 4.0 SSW 24 33 13 18 1028.8 1028.8 0.2
20/10:30pm 13.6 7.8 4.5 54 4.2 SSW 24 35 13 19 1028.9 1028.9 0.2
20/10:00pm 14.5 8.8 4.8 52 4.5 SSW 24 37 13 20 1028.7 1028.7 0.2
20/09:30pm 15.5 9.0 4.8 49 5.0 SSW 28 39 15 21 1028.4 1028.3 0.2
20/09:00pm 16.5 10.7 4.2 44 5.7 S 24 33 13 18 1028.1 1028.0 0.2
20/08:30pm 17.6 12.2 1.2 33 7.2 S 19 28 10 15 1027.7 1027.6 0.2
20/08:00pm 18.4 13.0 1.0 31 7.7 S 19 24 10 13 1027.3 1027.2 0.2
20/07:30pm 19.2 13.2 0.8 29 8.2 S 22 30 12 16 1027.0 1026.9 0.2
20/07:00pm 20.1 13.9 -0.5 25 9.0 S 22 35 12 19 1026.6 1026.5 0.2

Other Formats:

Comma delimited format used in spreadsheet applications
http://www.bom.gov.au/fwo/IDS60801/IDS60801.95687.axf

JavaScript Object Notation format (JSON) in row-major order
http://www.bom.gov.au/fwo/IDS60801/IDS60801.95687.json